createdAt,value
2022-09-02T00:00:14.030Z,78.42
2022-09-02T00:02:31.308Z,77.75
2022-09-02T00:04:48.601Z,77.73
2022-09-02T00:07:05.532Z,79.33
2022-09-02T00:09:22.630Z,78.92
2022-09-02T00:11:40.010Z,78.52
2022-09-02T00:13:57.134Z,77.56
2022-09-02T00:16:14.468Z,78.99
2022-09-02T00:18:31.862Z,77.93
2022-09-02T00:20:48.922Z,79.05
2022-09-02T00:23:05.893Z,77.95
2022-09-02T00:25:22.995Z,78.06
2022-09-02T00:27:39.989Z,78.12
2022-09-02T00:29:57.303Z,78.23
2022-09-02T00:32:14.333Z,78.20
2022-09-02T00:34:31.668Z,78.75
2022-09-02T00:36:48.702Z,79.51
2022-09-02T00:39:05.713Z,78.47
2022-09-02T00:41:22.975Z,79.35
2022-09-02T00:43:40.048Z,78.50
2022-09-02T00:45:57.196Z,78.95
2022-09-02T00:48:14.605Z,78.87
2022-09-02T00:50:32.505Z,79.00
2022-09-02T00:52:49.535Z,78.47
2022-09-02T00:55:06.867Z,79.59
2022-09-02T00:57:23.903Z,79.31
2022-09-02T00:59:40.874Z,79.22
2022-09-02T01:01:57.930Z,79.37
2022-09-02T01:04:15.098Z,78.98
2022-09-02T01:06:32.357Z,79.89
2022-09-02T01:08:49.365Z,80.16
2022-09-02T01:11:06.513Z,79.74
2022-09-02T01:13:24.903Z,80.46
2022-09-02T01:15:41.979Z,79.74
2022-09-02T01:18:00.182Z,79.63
2022-09-02T01:20:17.475Z,79.47
2022-09-02T01:22:35.467Z,79.78
2022-09-02T01:24:52.466Z,80.20
2022-09-02T01:27:09.727Z,79.50
2022-09-02T01:29:27.044Z,79.80
2022-09-02T01:31:44.093Z,80.18
2022-09-02T01:34:01.126Z,80.04
2022-09-02T01:36:18.139Z,80.08
2022-09-02T01:38:35.466Z,79.96
2022-09-02T01:40:55.108Z,80.11
2022-09-02T01:43:12.131Z,80.37
2022-09-02T01:45:29.448Z,80.05
2022-09-02T01:47:46.829Z,80.21
2022-09-02T01:50:04.122Z,80.06
2022-09-02T01:52:21.361Z,79.93
2022-09-02T01:54:39.712Z,79.93
2022-09-02T01:56:57.632Z,79.97
2022-09-02T01:59:14.687Z,80.32
2022-09-02T02:01:32.113Z,79.93
2022-09-02T02:03:49.218Z,79.99
2022-09-02T02:06:06.159Z,79.63
2022-09-02T02:08:23.121Z,79.95
2022-09-02T02:10:40.357Z,79.94
2022-09-02T02:12:57.583Z,79.85
2022-09-02T02:15:14.601Z,79.95
2022-09-02T02:17:31.639Z,79.98
2022-09-02T02:19:48.588Z,80.17
2022-09-02T02:22:05.493Z,80.19
2022-09-02T02:24:23.270Z,80.44
2022-09-02T02:26:40.223Z,80.42
2022-09-02T02:28:57.300Z,79.83
2022-09-02T02:31:14.651Z,80.69
2022-09-02T02:33:36.265Z,80.63
2022-09-02T02:35:55.511Z,79.94
2022-09-02T02:38:14.326Z,80.65
2022-09-02T02:40:31.772Z,80.13
2022-09-02T02:42:49.657Z,80.05
2022-09-02T02:45:06.719Z,80.20
2022-09-02T02:47:25.026Z,81.09
2022-09-02T02:49:42.080Z,80.90
2022-09-02T02:51:59.088Z,80.21
2022-09-02T02:54:16.117Z,80.78
2022-09-02T02:56:33.147Z,80.67
2022-09-02T02:58:50.190Z,80.77
2022-09-02T03:01:07.266Z,80.21
2022-09-02T03:03:24.178Z,80.81
2022-09-02T03:05:41.279Z,80.02
2022-09-02T03:07:58.448Z,81.09
2022-09-02T03:10:15.512Z,81.04
2022-09-02T03:12:32.427Z,80.89
2022-09-02T03:14:49.505Z,81.13
2022-09-02T03:17:07.441Z,80.64
2022-09-02T03:19:24.503Z,81.63
2022-09-02T03:21:41.466Z,81.33
2022-09-02T03:23:58.387Z,81.75
2022-09-02T03:26:15.457Z,81.57
2022-09-02T03:28:36.133Z,80.73
2022-09-02T03:30:53.418Z,81.56
2022-09-02T03:33:10.387Z,81.35
2022-09-02T03:35:27.453Z,81.89
2022-09-02T03:37:44.688Z,81.80
2022-09-02T03:40:01.927Z,80.71
2022-09-02T03:42:19.704Z,81.40
2022-09-02T03:44:36.875Z,81.04
2022-09-02T03:46:53.863Z,81.89
2022-09-02T03:49:10.922Z,81.92
2022-09-02T03:51:27.996Z,81.13
2022-09-02T03:53:45.101Z,80.74
2022-09-02T03:56:02.414Z,81.76
2022-09-02T03:58:19.501Z,81.61
2022-09-02T04:00:36.561Z,81.63
2022-09-02T04:02:53.606Z,81.08
2022-09-02T04:05:15.912Z,81.59
2022-09-02T04:07:33.958Z,81.69
2022-09-02T04:09:51.291Z,80.57
2022-09-02T04:12:08.344Z,81.96
2022-09-02T04:14:25.658Z,81.59
2022-09-02T04:16:42.636Z,80.82
2022-09-02T04:18:59.680Z,81.00
2022-09-02T04:21:16.744Z,80.60
2022-09-02T04:23:34.010Z,81.00
2022-09-02T04:25:51.066Z,81.00
2022-09-02T04:28:08.084Z,81.33
2022-09-02T04:30:25.037Z,81.33
2022-09-02T04:32:42.119Z,81.09
2022-09-02T04:35:02.536Z,81.90
2022-09-02T04:37:19.836Z,81.87
2022-09-02T04:39:36.871Z,81.48
2022-09-02T04:41:54.948Z,82.00
2022-09-02T04:44:11.909Z,81.42
2022-09-02T04:46:34.479Z,82.18
2022-09-02T04:48:52.070Z,81.01
2022-09-02T04:51:09.365Z,81.57
2022-09-02T04:53:26.953Z,82.03
2022-09-02T04:55:44.270Z,80.96
2022-09-02T04:58:01.295Z,81.61
2022-09-02T05:00:19.315Z,80.56
2022-09-02T05:02:36.456Z,80.62
2022-09-02T05:04:53.526Z,81.67
2022-09-02T05:07:11.544Z,81.95
2022-09-02T05:09:30.283Z,80.66
2022-09-02T05:11:47.399Z,80.66
2022-09-02T05:14:04.353Z,81.23
2022-09-02T05:16:21.748Z,80.89
2022-09-02T05:18:40.087Z,80.91
2022-09-02T05:20:57.053Z,80.93
2022-09-02T05:23:14.124Z,80.85
2022-09-02T05:25:31.431Z,81.66
2022-09-02T05:27:48.549Z,82.17
2022-09-02T05:30:05.657Z,81.86
2022-09-02T05:32:22.702Z,82.17
2022-09-02T05:34:40.501Z,81.03
2022-09-02T05:36:57.459Z,82.41
2022-09-02T05:39:16.092Z,82.54
2022-09-02T05:41:33.428Z,81.65
2022-09-02T05:43:50.658Z,80.79
2022-09-02T05:46:08.119Z,80.83
2022-09-02T05:48:25.160Z,80.66
2022-09-02T05:50:42.276Z,80.55
2022-09-02T05:53:03.254Z,81.69
2022-09-02T05:55:20.276Z,80.52
2022-09-02T05:57:37.275Z,82.15
2022-09-02T05:59:54.601Z,81.31
2022-09-02T06:02:11.686Z,81.11
2022-09-02T06:04:28.794Z,80.75
2022-09-02T06:06:45.880Z,81.68
2022-09-02T06:09:03.126Z,81.85
2022-09-02T06:11:20.438Z,81.00
2022-09-02T06:13:37.501Z,81.15
2022-09-02T06:15:55.645Z,82.62
2022-09-02T06:18:12.722Z,82.21
2022-09-02T06:20:31.408Z,82.53
2022-09-02T06:22:48.335Z,81.49
2022-09-02T06:25:05.353Z,82.17
2022-09-02T06:27:22.623Z,82.00
2022-09-02T06:29:39.788Z,82.67
2022-09-02T06:31:56.752Z,82.30
2022-09-02T06:34:13.732Z,82.07
2022-09-02T06:36:31.067Z,82.25
2022-09-02T06:38:48.049Z,80.71
2022-09-02T06:41:06.035Z,81.05
2022-09-02T06:43:23.135Z,80.27
2022-09-02T06:45:40.245Z,80.27
2022-09-02T06:47:57.858Z,79.33
2022-09-02T06:50:14.911Z,78.87
2022-09-02T06:52:31.986Z,79.03
2022-09-02T06:54:49.280Z,78.85
2022-09-02T06:57:06.223Z,77.79
2022-09-02T06:59:23.502Z,77.50
2022-09-02T07:01:40.703Z,77.72
2022-09-02T07:03:57.774Z,78.10
2022-09-02T07:06:15.064Z,78.29
2022-09-02T07:08:32.305Z,78.17
2022-09-02T07:10:49.663Z,77.37
2022-09-02T07:13:06.692Z,77.84
2022-09-02T07:15:23.689Z,77.40
2022-09-02T07:17:40.672Z,77.15
2022-09-02T07:19:57.592Z,75.71
2022-09-02T07:22:14.893Z,75.95
2022-09-02T07:24:36.846Z,75.56
2022-09-02T07:26:55.461Z,75.26
2022-09-02T07:29:13.330Z,75.41
2022-09-02T07:31:30.313Z,75.01
2022-09-02T07:33:49.976Z,76.41
2022-09-02T07:36:10.981Z,74.58
2022-09-02T07:38:29.523Z,74.58
2022-09-02T07:40:46.619Z,73.84
2022-09-02T07:43:03.788Z,73.80
2022-09-02T07:45:21.154Z,72.34
2022-09-02T07:47:38.216Z,71.45
2022-09-02T07:52:32.171Z,69.45
2022-09-02T07:54:49.536Z,68.20
2022-09-02T07:57:06.931Z,68.02
2022-09-02T07:59:24.005Z,66.35
2022-09-02T08:04:06.155Z,65.43
2022-09-02T08:06:33.677Z,65.74
2022-09-02T08:08:51.934Z,64.68
2022-09-02T08:11:09.015Z,62.59
2022-09-02T08:13:27.039Z,62.00
2022-09-02T08:15:44.675Z,62.07
2022-09-02T08:18:02.602Z,61.76
2022-09-02T08:20:19.614Z,60.02
2022-09-02T08:22:37.942Z,58.82
2022-09-02T08:24:54.958Z,55.53
2022-09-02T08:27:11.871Z,56.59
2022-09-02T08:29:28.801Z,56.81
2022-09-02T08:31:46.933Z,54.44
2022-09-02T08:34:05.945Z,54.13
2022-09-02T08:36:23.278Z,53.38
2022-09-02T08:38:40.298Z,53.29
2022-09-02T08:40:57.421Z,52.37
2022-09-02T08:43:14.589Z,51.26
2022-09-02T08:45:31.776Z,51.91
2022-09-02T08:47:48.914Z,51.83
2022-09-02T08:50:06.244Z,51.09
2022-09-02T08:52:24.343Z,50.71
2022-09-02T08:54:41.436Z,50.56
2022-09-02T08:56:58.397Z,49.44
2022-09-02T08:59:15.327Z,50.44
2022-09-02T09:01:32.408Z,50.09
2022-09-02T09:03:49.530Z,49.26
2022-09-02T09:06:06.876Z,49.37
2022-09-02T09:08:23.902Z,48.17
2022-09-02T09:10:40.934Z,47.87
2022-09-02T09:12:58.926Z,48.57
2022-09-02T09:15:17.743Z,47.12
2022-09-02T09:17:34.806Z,47.13
2022-09-02T09:19:52.159Z,48.74
2022-09-02T09:22:09.446Z,45.94
2022-09-02T09:24:26.797Z,45.66
2022-09-02T09:26:43.752Z,46.09
2022-09-02T09:29:00.815Z,47.01
2022-09-02T09:31:18.084Z,45.81
2022-09-02T09:33:35.545Z,44.97
2022-09-02T09:35:52.487Z,45.88
2022-09-02T09:38:09.401Z,45.78
2022-09-02T09:40:26.535Z,43.64
2022-09-02T09:42:49.140Z,44.69
2022-09-02T09:45:07.166Z,43.77
2022-09-02T09:47:24.512Z,44.41
2022-09-02T09:49:42.756Z,43.73
2022-09-02T09:51:59.675Z,43.45
2022-09-02T09:54:16.677Z,43.99
2022-09-02T09:56:37.533Z,43.44
2022-09-02T09:58:55.070Z,42.84
2022-09-02T10:01:13.237Z,41.51
2022-09-02T10:03:33.027Z,42.11
2022-09-02T10:05:50.505Z,41.29
2022-09-02T10:08:15.132Z,41.33
2022-09-02T10:10:32.678Z,41.12
2022-09-02T10:12:49.756Z,41.78
2022-09-02T10:15:06.960Z,39.77
2022-09-02T10:17:23.883Z,39.87
2022-09-02T10:19:41.010Z,38.49
2022-09-02T10:21:58.110Z,40.00
2022-09-02T10:24:15.348Z,39.95
2022-09-02T10:26:32.664Z,40.44
2022-09-02T10:28:51.919Z,39.40
2022-09-02T10:31:10.270Z,38.83
2022-09-02T10:33:27.213Z,37.23
2022-09-02T10:35:45.508Z,35.19
2022-09-02T10:38:02.776Z,37.17
2022-09-02T10:40:19.883Z,36.33
2022-09-02T10:42:37.234Z,36.45
2022-09-02T10:44:57.027Z,35.52
2022-09-02T10:47:15.945Z,35.69
2022-09-02T10:49:33.255Z,35.71
2022-09-02T10:51:50.213Z,35.91
2022-09-02T10:54:07.562Z,35.92
2022-09-02T10:56:24.547Z,35.79
2022-09-02T10:58:41.918Z,35.38
2022-09-02T11:01:00.201Z,35.30
2022-09-02T11:03:17.362Z,35.93
2022-09-02T11:05:34.674Z,35.42
2022-09-02T11:07:51.677Z,35.15
2022-09-02T11:10:08.775Z,35.62
2022-09-02T11:12:25.731Z,34.98
2022-09-02T11:14:43.339Z,34.60
2022-09-02T11:17:02.436Z,34.75
2022-09-02T11:19:19.978Z,34.88
2022-09-02T11:21:36.967Z,33.56
2022-09-02T11:23:54.393Z,34.00
2022-09-02T11:26:11.359Z,33.78
2022-09-02T11:28:28.491Z,33.43
2022-09-02T11:30:45.581Z,34.05
2022-09-02T11:33:02.722Z,34.14
2022-09-02T11:35:19.992Z,34.63
2022-09-02T11:37:37.249Z,34.45
2022-09-02T11:40:06.642Z,33.89
2022-09-02T11:42:31.488Z,34.46
2022-09-02T11:44:52.983Z,32.68
2022-09-02T11:47:10.310Z,32.57
2022-09-02T11:49:27.313Z,32.91
2022-09-02T11:51:44.361Z,32.91
2022-09-02T11:54:02.039Z,33.30
2022-09-02T11:56:21.889Z,33.67
2022-09-02T11:58:42.652Z,33.63
2022-09-02T12:00:59.951Z,33.60
2022-09-02T12:03:38.850Z,33.24
2022-09-02T12:05:54.353Z,33.30
2022-09-02T12:08:12.312Z,32.77
2022-09-02T12:10:29.248Z,32.69
2022-09-02T12:12:49.975Z,33.58
2022-09-02T12:15:08.397Z,32.89
2022-09-02T12:17:25.700Z,33.18
2022-09-02T12:19:43.378Z,32.68
2022-09-02T12:22:00.696Z,32.76
2022-09-02T12:24:17.652Z,32.88
2022-09-02T12:26:35.032Z,34.61
2022-09-02T12:28:52.032Z,33.37
2022-09-02T12:31:09.369Z,33.06
2022-09-02T12:33:26.345Z,33.57
2022-09-02T12:38:00.718Z,33.39
2022-09-02T12:40:17.759Z,32.84
2022-09-02T12:42:34.866Z,32.50
2022-09-02T12:44:54.987Z,33.84
2022-09-02T12:47:13.340Z,32.60
2022-09-02T12:49:30.356Z,33.05
2022-09-02T12:51:47.605Z,32.76
2022-09-02T12:54:04.540Z,32.53
2022-09-02T12:56:21.488Z,31.97
2022-09-02T12:58:38.765Z,33.90
2022-09-02T13:00:55.714Z,32.29
2022-09-02T13:03:13.845Z,32.55
2022-09-02T13:05:30.948Z,33.09
2022-09-02T13:07:48.285Z,32.54
2022-09-02T13:10:05.536Z,33.02
2022-09-02T13:12:22.756Z,32.91
2022-09-02T13:14:40.761Z,32.64
2022-09-02T13:17:05.064Z,32.65
2022-09-02T13:19:30.748Z,33.41
2022-09-02T13:21:47.773Z,32.87
2022-09-02T13:24:06.022Z,31.69
2022-09-02T13:26:45.480Z,32.92
2022-09-02T13:28:59.922Z,32.00
2022-09-02T13:31:16.928Z,32.26
2022-09-02T13:33:33.944Z,32.08
2022-09-02T13:35:51.039Z,31.71
2022-09-02T13:38:08.444Z,31.26
2022-09-02T13:40:25.572Z,31.78
2022-09-02T13:42:42.539Z,31.47
2022-09-02T13:44:59.519Z,31.40
2022-09-02T13:47:16.549Z,32.42
2022-09-02T13:49:37.462Z,31.42
2022-09-02T13:51:54.896Z,31.29
2022-09-02T13:54:23.262Z,31.39
2022-09-02T13:56:40.541Z,31.40
2022-09-02T13:58:57.622Z,31.54
2022-09-02T14:01:16.079Z,30.05
2022-09-02T14:03:33.799Z,31.87
2022-09-02T14:05:51.052Z,31.51
2022-09-02T14:08:09.321Z,31.46
2022-09-02T14:10:26.687Z,31.16
2022-09-02T14:12:43.735Z,30.05
2022-09-02T14:15:00.756Z,30.34
2022-09-02T14:17:18.031Z,30.66
2022-09-02T14:19:35.035Z,29.95
2022-09-02T14:21:52.109Z,31.80
2022-09-02T14:24:09.130Z,31.18
2022-09-02T14:26:26.416Z,30.22
2022-09-02T14:28:43.814Z,30.54
2022-09-02T14:31:01.186Z,30.56
2022-09-02T14:33:18.592Z,29.99
2022-09-02T14:35:35.659Z,30.36
2022-09-02T14:37:52.662Z,31.08
2022-09-02T14:40:12.000Z,29.74
2022-09-02T14:42:29.733Z,28.61
2022-09-02T14:44:46.827Z,30.08
2022-09-02T14:47:05.216Z,30.48
2022-09-02T14:49:22.424Z,30.17
2022-09-02T14:51:39.474Z,30.19
2022-09-02T14:53:56.714Z,30.71
2022-09-02T14:56:13.644Z,30.58
2022-09-02T14:58:30.681Z,31.00
2022-09-02T15:00:47.708Z,30.61
2022-09-02T15:03:04.605Z,31.17
2022-09-02T15:05:21.943Z,30.04
2022-09-02T15:07:40.178Z,30.85
2022-09-02T15:09:57.218Z,30.49
2022-09-02T15:12:14.305Z,30.08
2022-09-02T15:14:38.296Z,31.22
2022-09-02T15:16:55.397Z,30.40
2022-09-02T15:19:12.375Z,29.60
2022-09-02T15:21:29.662Z,30.23
2022-09-02T15:23:50.966Z,31.08
2022-09-02T15:26:08.233Z,30.30
2022-09-02T15:28:25.403Z,30.59
2022-09-02T15:30:42.536Z,29.75
2022-09-02T15:32:59.957Z,30.78
2022-09-02T15:35:17.036Z,30.00
2022-09-02T15:37:34.128Z,30.94
2022-09-02T15:39:51.165Z,30.80
2022-09-02T15:42:08.335Z,30.96
2022-09-02T15:44:25.367Z,31.89
2022-09-02T15:46:42.339Z,31.83
2022-09-02T15:49:02.444Z,32.31
2022-09-02T15:51:19.815Z,31.62
2022-09-02T15:53:36.892Z,32.42
2022-09-02T15:55:53.897Z,32.60
2022-09-02T15:58:11.285Z,31.76
2022-09-02T16:00:28.735Z,32.11
2022-09-02T16:02:46.126Z,32.81
2022-09-02T16:05:03.584Z,32.91
2022-09-02T16:07:21.500Z,33.17
2022-09-02T16:09:38.453Z,33.17
2022-09-02T16:11:55.555Z,33.12
2022-09-02T16:14:12.636Z,33.20
2022-09-02T16:16:29.906Z,32.62
2022-09-02T16:18:47.016Z,33.13
2022-09-02T16:21:04.325Z,33.12
2022-09-02T16:23:21.437Z,33.47
2022-09-02T16:25:38.489Z,33.20
2022-09-02T16:27:56.735Z,34.13
2022-09-02T16:30:13.774Z,33.90
2022-09-02T16:32:31.010Z,33.44
2022-09-02T16:34:48.092Z,33.65
2022-09-02T16:37:05.353Z,33.86
2022-09-02T16:39:22.766Z,34.45
2022-09-02T16:41:39.728Z,35.22
2022-09-02T16:43:56.840Z,34.46
2022-09-02T16:46:13.813Z,34.13
2022-09-02T16:48:30.782Z,34.79
2022-09-02T16:50:48.114Z,34.90
2022-09-02T16:53:05.203Z,34.88
2022-09-02T16:55:22.548Z,34.08
2022-09-02T16:57:40.518Z,34.93
2022-09-02T16:59:58.771Z,36.14
2022-09-02T17:02:16.881Z,35.11
2022-09-02T17:04:33.748Z,34.53
2022-09-02T17:06:50.841Z,35.13
2022-09-02T17:09:07.836Z,35.57
2022-09-02T17:11:25.167Z,35.77
2022-09-02T17:13:42.201Z,35.79
2022-09-02T17:15:59.494Z,35.19
2022-09-02T17:18:16.501Z,36.42
2022-09-02T17:20:33.761Z,36.81
2022-09-02T17:22:51.806Z,37.56
2022-09-02T17:25:09.117Z,39.60
2022-09-02T17:27:26.047Z,40.93
2022-09-02T17:29:50.406Z,41.34
2022-09-02T17:32:07.851Z,40.33
2022-09-02T17:34:24.872Z,41.16
2022-09-02T17:36:41.927Z,42.00
2022-09-02T17:38:58.971Z,42.99
2022-09-02T17:41:16.088Z,41.75
2022-09-02T17:43:34.375Z,42.55
2022-09-02T17:45:51.786Z,42.71
2022-09-02T17:48:34.756Z,43.42
2022-09-02T17:50:47.088Z,43.15
2022-09-02T17:53:04.475Z,44.39
2022-09-02T17:55:21.408Z,44.29
2022-09-02T17:57:42.700Z,44.87
2022-09-02T18:00:00.257Z,45.83
2022-09-02T18:02:18.297Z,45.93
2022-09-02T18:04:35.565Z,46.40
2022-09-02T18:06:52.873Z,45.24
2022-09-02T18:09:12.115Z,47.38
2022-09-02T18:11:31.592Z,46.93
2022-09-02T18:13:49.726Z,47.33
2022-09-02T18:16:11.641Z,46.94
2022-09-02T18:18:33.280Z,48.06
2022-09-02T18:20:51.332Z,48.31
2022-09-02T18:23:08.696Z,48.75
2022-09-02T18:25:26.020Z,48.65
2022-09-02T18:27:44.224Z,48.18
2022-09-02T18:30:01.358Z,48.52
2022-09-02T18:32:18.319Z,48.59
2022-09-02T18:34:35.394Z,48.38
2022-09-02T18:36:55.122Z,48.90
2022-09-02T18:39:12.486Z,49.45
2022-09-02T18:41:30.531Z,49.14
2022-09-02T18:43:47.858Z,49.59
2022-09-02T18:46:04.943Z,49.57
2022-09-02T18:48:23.003Z,49.43
2022-09-02T18:50:55.581Z,50.05
2022-09-02T18:53:12.681Z,49.65
2022-09-02T18:55:30.739Z,50.68
2022-09-02T18:57:47.879Z,50.50
2022-09-02T19:00:05.062Z,49.89
2022-09-02T19:02:22.288Z,51.19
2022-09-02T19:04:39.698Z,51.09
2022-09-02T19:06:57.010Z,51.64
2022-09-02T19:09:14.970Z,50.96
2022-09-02T19:11:32.010Z,50.80
2022-09-02T19:13:49.328Z,50.46
2022-09-02T19:16:06.629Z,50.98
2022-09-02T19:18:24.769Z,52.31
2022-09-02T19:20:42.148Z,51.48
2022-09-02T19:22:59.193Z,53.57
2022-09-02T19:25:16.133Z,53.32
2022-09-02T19:27:33.032Z,53.47
2022-09-02T19:29:50.097Z,53.42
2022-09-02T19:32:07.171Z,53.20
2022-09-02T19:34:24.315Z,52.27
2022-09-02T19:36:41.599Z,52.85
2022-09-02T19:38:58.553Z,54.30
2022-09-02T19:41:15.531Z,54.47
2022-09-02T19:43:32.492Z,53.64
2022-09-02T19:45:50.733Z,53.66
2022-09-02T19:48:09.060Z,54.02
2022-09-02T19:50:26.579Z,55.41
2022-09-02T19:52:43.502Z,55.62
2022-09-02T19:55:00.506Z,55.49
2022-09-02T19:57:18.244Z,54.63
2022-09-02T19:59:35.537Z,55.60
2022-09-02T20:01:52.434Z,55.78
2022-09-02T20:04:09.790Z,54.99
2022-09-02T20:06:26.862Z,55.83
2022-09-02T20:08:43.825Z,55.41
2022-09-02T20:11:01.127Z,55.65
2022-09-02T20:13:18.365Z,56.52
2022-09-02T20:15:35.506Z,56.83
2022-09-02T20:17:52.397Z,56.49
2022-09-02T20:20:09.469Z,57.03
2022-09-02T20:22:26.432Z,56.70
2022-09-02T20:24:43.728Z,56.58
2022-09-02T20:27:00.618Z,56.88
2022-09-02T20:29:17.891Z,57.26
2022-09-02T20:31:35.061Z,57.68
2022-09-02T20:33:53.896Z,58.17
2022-09-02T20:36:11.001Z,58.18
2022-09-02T20:38:28.988Z,58.06
2022-09-02T20:40:46.305Z,58.55
2022-09-02T20:43:03.344Z,58.87
2022-09-02T20:45:20.618Z,58.90
2022-09-02T20:47:37.874Z,59.24
2022-09-02T20:49:54.942Z,59.34
2022-09-02T20:52:11.970Z,58.67
2022-09-02T20:54:28.909Z,59.09
2022-09-02T20:56:46.837Z,59.16
2022-09-02T20:59:03.875Z,59.16
2022-09-02T21:01:21.211Z,58.76
2022-09-02T21:03:38.179Z,59.33
2022-09-02T21:05:55.111Z,59.27
2022-09-02T21:08:13.353Z,59.63
2022-09-02T21:10:30.422Z,60.67
2022-09-02T21:12:47.504Z,60.20
2022-09-02T21:15:04.510Z,60.63
2022-09-02T21:17:21.503Z,60.87
2022-09-02T21:19:38.527Z,60.32
2022-09-02T21:21:55.598Z,59.95
2022-09-02T21:24:12.567Z,60.98
2022-09-02T21:26:30.249Z,60.19
2022-09-02T21:28:47.570Z,59.91
2022-09-02T21:31:04.636Z,60.17
2022-09-02T21:33:21.636Z,60.01
2022-09-02T21:35:38.584Z,60.27
2022-09-02T21:37:55.579Z,61.20
2022-09-02T21:40:12.453Z,60.67
2022-09-02T21:42:29.436Z,61.60
2022-09-02T21:44:46.508Z,60.29
2022-09-02T21:47:03.443Z,60.60
2022-09-02T21:49:20.459Z,61.77
2022-09-02T21:51:37.524Z,61.62
2022-09-02T21:53:55.540Z,60.94
2022-09-02T21:56:12.879Z,61.90
2022-09-02T21:58:29.901Z,62.13
2022-09-02T22:00:47.242Z,62.48
2022-09-02T22:03:05.554Z,62.53
2022-09-02T22:05:22.527Z,61.95
2022-09-02T22:07:39.793Z,63.07
2022-09-02T22:09:56.854Z,63.14
2022-09-02T22:12:13.783Z,62.87
2022-09-02T22:14:30.752Z,62.33
2022-09-02T22:16:48.757Z,61.63
2022-09-02T22:19:06.150Z,62.73
2022-09-02T22:21:23.259Z,63.46
2022-09-02T22:23:40.231Z,62.58
2022-09-02T22:25:57.563Z,63.35
2022-09-02T22:28:14.634Z,62.70
2022-09-02T22:30:31.715Z,63.04
2022-09-02T22:32:48.772Z,64.36
2022-09-02T22:35:05.893Z,64.20
2022-09-02T22:37:23.147Z,63.74
2022-09-02T22:39:40.222Z,63.80
2022-09-02T22:41:57.871Z,64.64
2022-09-02T22:44:18.208Z,64.91
2022-09-02T22:46:35.379Z,65.08
2022-09-02T22:48:52.579Z,63.81
2022-09-02T22:51:09.588Z,65.74
2022-09-02T22:53:26.845Z,64.25
2022-09-02T22:55:43.923Z,65.19
2022-09-02T22:58:01.149Z,64.08
2022-09-02T23:00:18.037Z,66.88
2022-09-02T23:02:35.100Z,66.12
2022-09-02T23:04:53.136Z,66.60
2022-09-02T23:07:10.368Z,65.44
2022-09-02T23:09:27.297Z,64.90
2022-09-02T23:11:44.385Z,65.85
2022-09-02T23:14:01.480Z,64.90
2022-09-02T23:16:18.887Z,64.92
2022-09-02T23:18:35.945Z,65.88
2022-09-02T23:20:53.036Z,65.74
2022-09-02T23:23:10.092Z,66.48
2022-09-02T23:25:28.095Z,66.25
2022-09-02T23:27:46.121Z,66.46
2022-09-02T23:30:03.093Z,66.01
2022-09-02T23:32:20.441Z,66.70
2022-09-02T23:34:37.383Z,66.57
2022-09-02T23:36:55.332Z,68.17
2022-09-02T23:39:12.241Z,68.18
2022-09-02T23:41:33.238Z,67.52
2022-09-02T23:43:50.498Z,66.47
2022-09-02T23:46:07.883Z,68.51
2022-09-02T23:48:25.397Z,67.61
2022-09-02T23:50:42.797Z,67.04
2022-09-02T23:52:59.649Z,66.70
2022-09-02T23:55:16.762Z,68.65
2022-09-02T23:57:34.233Z,68.36
2022-09-02T23:59:51.640Z,68.75
